Goliah — WDD5908 — position and weather

sailwx.info

Track history (hours):
 
Tides and Currents Weather Stations Pressure Air Temp Water Temp Dewpoint Dewpoint Depression Visibility Wind Speed Wind Dir Waves Ship Positions

Goliah

Owner: Crowley Marine Services, Inc., Seattle, WA. More information available from US FCC via Universal Licensing System and Coast Guard Vessel Documentation Center.

Last reported at 2014-Oct-31 23:34 UTC. Time now 2014-Nov-01 00:34 UTC.
Position N 47°35' W 122°21'.

Length 33 m; draft 4.8 m.

Type: Tug. MMSI: 366898250.

Date/timePositionNaut miles runAvg speedWind from/ knotsBaromVisibWave heightAir tempDewpointWater temp
2014-Oct-31 23:34N 47°35' W 122°21'0 0.1
2014-Oct-31 23:30N 47°35' W 122°21'0 0.0
2014-Oct-31 22:34N 47°35' W 122°21'0 0.1
2014-Oct-31 22:30N 47°35' W 122°21'0 0.0
2014-Oct-31 21:34N 47°35' W 122°21'0 0.0
2014-Oct-31 21:29N 47°35' W 122°21'0 0.0
2014-Oct-31 20:34N 47°35' W 122°21'0 0.0
2014-Oct-31 20:29N 47°35' W 122°21'0 0.3
2014-Oct-31 19:33N 47°35' W 122°21'0 0.1
2014-Oct-31 19:29N 47°35' W 122°21'0 0.0
2014-Oct-31 18:33N 47°35' W 122°21'0 0.0
2014-Oct-31 18:29N 47°35' W 122°21'0 0.3
2014-Oct-31 17:34N 47°36' W 122°21'1 1.8
2014-Oct-31 17:01N 47°36' W 122°23'1 2.5
2014-Oct-31 16:33N 47°35' W 122°21'0 0.0
2014-Oct-31 16:31N 47°35' W 122°21'0 0.0
2014-Oct-31 15:33N 47°35' W 122°21'0 0.0
2014-Oct-31 15:31N 47°35' W 122°21'0 0.0
2014-Oct-31 14:34N 47°35' W 122°21'0 0.2
2014-Oct-31 14:31N 47°35' W 122°21'0 0.5
2014-Oct-31 13:33N 47°36' W 122°21'0 1.2
2014-Oct-31 13:31N 47°36' W 122°21'0 0.4
2014-Oct-31 12:33N 47°35' W 122°21'0 0.0
2014-Oct-31 12:31N 47°35' W 122°21'0 0.0
2014-Oct-31 11:34N 47°35' W 122°21'0 0.0
2014-Oct-31 11:31N 47°35' W 122°21'0 0.0
2014-Oct-31 10:34N 47°35' W 122°21'0 0.0
2014-Oct-31 10:31N 47°35' W 122°21'0 0.0
2014-Oct-31 09:34N 47°35' W 122°21'0 0.1
2014-Oct-31 09:31N 47°35' W 122°21'0 0.0
2014-Oct-31 08:34N 47°35' W 122°21'0 0.0
2014-Oct-31 08:25N 47°35' W 122°21'0 0.0
2014-Oct-31 07:33N 47°35' W 122°21'0 0.0
2014-Oct-31 07:30N 47°35' W 122°21'1 1.4
2014-Oct-31 06:34N 47°36' W 122°23'0 9.0
2014-Oct-31 06:30N 47°36' W 122°23'2 9.2
2014-Oct-31 06:20N 47°35' W 122°25'7 9.4
2014-Oct-31 05:34N 47°28' W 122°24'8 7.9
2014-Oct-31 04:34N 47°20' W 122°25'5 4.6
2014-Oct-31 03:34N 47°16' W 122°23'3 2.8
2014-Oct-31 02:34N 47°17' W 122°26'3 2.5
2014-Oct-31 01:34N 47°16' W 122°23'4 4.3
2014-Oct-31 00:34N 47°19' W 122°27'1010.4
2014-Oct-30 23:34N 47°30' W 122°24'411.2
2014-Oct-30 23:14N 47°33' W 122°25'3 5.1
2014-Oct-30 22:34N 47°35' W 122°21'0 0.1
2014-Oct-30 22:29N 47°35' W 122°21'2 2.4
2014-Oct-30 21:34N 47°37' W 122°23'0 0.0
2014-Oct-30 21:34N 47°37' W 122°23'2 1.7
2014-Oct-30 20:34N 47°35' W 122°21'0 0.0
2014-Oct-30 20:33N 47°35' W 122°21'0 0.0
2014-Oct-30 19:34N 47°35' W 122°21'0 0.0
2014-Oct-30 19:33N 47°35' W 122°21'0 0.1
2014-Oct-30 18:34N 47°35' W 122°21'0 5.3
2014-Oct-30 18:33N 47°36' W 122°21'1 1.0
2014-Oct-30 17:34N 47°35' W 122°21'0 1.5
2014-Oct-30 17:33N 47°35' W 122°21'1 0.8
2014-Oct-30 16:34N 47°35' W 122°21'0 0.9
2014-Oct-30 16:33N 47°35' W 122°21'0 0.3
2014-Oct-30 15:34N 47°36' W 122°21'0 4.1
2014-Oct-30 15:33N 47°36' W 122°21'7 7.0
2014-Oct-30 14:34N 47°29' W 122°24'8 8.4
2014-Oct-30 13:34N 47°21' W 122°24'5 5.0
2014-Oct-30 12:33N 47°16' W 122°24'2 2.0
2014-Oct-30 11:33N 47°17' W 122°26'0 0.5
2014-Oct-30 10:33N 47°18' W 122°26'6 5.8
2014-Oct-30 09:33N 47°23' W 122°22'3 8.8
2014-Oct-30 09:12N 47°26' W 122°24'6 8.9
2014-Oct-30 08:33N 47°31' W 122°27'1 9.0
2014-Oct-30 08:27N 47°32' W 122°27'8 8.7
2014-Oct-30 07:34N 47°40' W 122°29'0 8.5
2014-Oct-30 07:32N 47°40' W 122°29'8 8.5
2014-Oct-30 06:34N 47°49' W 122°28'0 9.0
2014-Oct-30 06:32N 47°49' W 122°28'3 9.0
2014-Oct-30 06:12N 47°52' W 122°29'5 8.0
2014-Oct-30 05:34N 47°56' W 122°33'9 8.6
2014-Oct-30 04:32N 48°04' W 122°39'18 8.7
2014-Oct-30 02:26N 48°21' W 122°46'8 9.2
2014-Oct-30 01:33N 48°29' W 122°44'6 6.1
2014-Oct-30 00:34N 48°31' W 122°35'0 0.5
2014-Oct-29 23:34N 48°31' W 122°35'4 3.7
2014-Oct-29 22:33N 48°31' W 122°41'10 8.3
2014-Oct-29 21:21N 48°22' W 122°45'810.4
2014-Oct-29 20:33N 48°13' W 122°48'1312.8
2014-Oct-29 19:33N 48°03' W 122°37'712.8
2014-Oct-29 19:01N 47°57' W 122°32'511.3
2014-Oct-29 18:33N 47°52' W 122°28'112.0
2014-Oct-29 18:30N 47°52' W 122°28'1112.0
2014-Oct-29 17:33N 47°40' W 122°27'112.6
2014-Oct-29 17:30N 47°40' W 122°27'6 6.5
2014-Oct-29 16:34N 47°35' W 122°21'0 0.4
2014-Oct-29 16:30N 47°35' W 122°21'1 1.1
2014-Oct-29 15:33N 47°36' W 122°21'0 8.7
2014-Oct-29 15:30N 47°36' W 122°22'8 8.8
2014-Oct-29 14:33N 47°28' W 122°24'9 9.0
2014-Oct-29 13:33N 47°19' W 122°27'4 4.1
2014-Oct-29 12:33N 47°16' W 122°23'2 1.8
2014-Oct-29 11:33N 47°17' W 122°25'1 0.6
2014-Oct-29 10:33N 47°17' W 122°25'1 1.4
2014-Oct-29 09:33N 47°18' W 122°26'1 1.2
2014-Oct-29 08:33N 47°19' W 122°27'7 6.6
2014-Oct-29 07:33N 47°24' W 122°23'6 7.5
2014-Oct-29 06:43N 47°30' W 122°26'1 8.1
2014-Oct-29 06:33N 47°31' W 122°26'1 7.6
2014-Oct-29 06:24N 47°33' W 122°27'1 7.7
2014-Oct-29 06:13N 47°34' W 122°26'4 6.6
2014-Oct-29 05:33N 47°37' W 122°22'0 0.1
2014-Oct-29 04:33N 47°37' W 122°22'0 0.3
2014-Oct-29 04:28N 47°37' W 122°22'2 2.3
2014-Oct-29 03:33N 47°35' W 122°21'0 0.1
2014-Oct-29 03:28N 47°35' W 122°21'0 0.0
2014-Oct-29 02:33N 47°35' W 122°21'0 0.0
2014-Oct-29 02:28N 47°35' W 122°21'0 0.0
2014-Oct-29 01:33N 47°35' W 122°21'0 0.0
2014-Oct-29 01:28N 47°35' W 122°21'0 0.0
2014-Oct-29 00:33N 47°35' W 122°21'0 0.1
2014-Oct-29 00:28N 47°35' W 122°21'0 0.0
2014-Oct-28 23:33N 47°35' W 122°21'0 0.0
2014-Oct-28 23:16N 47°35' W 122°21'0 0.0
2014-Oct-28 22:33N 47°35' W 122°21'0 0.0
2014-Oct-28 21:59N 47°35' W 122°21'0 0.0
2014-Oct-28 21:33N 47°35' W 122°21'0 0.1
2014-Oct-28 21:29N 47°35' W 122°21'1 0.6
2014-Oct-28 20:33N 47°35' W 122°22'0 0.1
2014-Oct-28 20:28N 47°35' W 122°22'1 1.3
2014-Oct-28 19:33N 47°36' W 122°22'0 0.8
2014-Oct-28 19:28N 47°36' W 122°22'1 1.1
2014-Oct-28 18:33N 47°35' W 122°21'0 0.0
2014-Oct-28 18:32N 47°35' W 122°21'0 0.0
2014-Oct-28 17:26N 47°35' W 122°21'0 0.0
2014-Oct-28 16:54N 47°35' W 122°21'0 0.0
2014-Oct-28 16:33N 47°35' W 122°21'0 0.0
2014-Oct-28 16:30N 47°35' W 122°21'0 0.0
2014-Oct-28 15:33N 47°35' W 122°21'0 0.0
2014-Oct-28 15:30N 47°35' W 122°21'0 0.0
2014-Oct-28 14:33N 47°35' W 122°21'0 0.1
2014-Oct-28 14:29N 47°35' W 122°21'0 0.0
2014-Oct-28 13:33N 47°35' W 122°21'0 0.0
2014-Oct-28 13:29N 47°35' W 122°21'0 0.0
2014-Oct-28 12:33N 47°35' W 122°21'0 0.1
2014-Oct-28 12:29N 47°35' W 122°21'0 0.0
2014-Oct-28 11:33N 47°35' W 122°21'0 0.0
2014-Oct-28 11:29N 47°35' W 122°21'0 0.0
2014-Oct-28 10:33N 47°35' W 122°21'0 0.1
2014-Oct-28 10:29N 47°35' W 122°21'0 0.0
2014-Oct-28 09:33N 47°35' W 122°21'0 0.0
2014-Oct-28 09:29N 47°35' W 122°21'0 0.0
2014-Oct-28 08:33N 47°35' W 122°21'0 0.1
2014-Oct-28 08:29N 47°35' W 122°21'3 3.0
2014-Oct-28 07:33N 47°37' W 122°24'0 3.1
2014-Oct-28 07:29N 47°37' W 122°24'3 3.0
2014-Oct-28 06:33N 47°35' W 122°22'0 2.1
2014-Oct-28 06:28N 47°35' W 122°22'0 3.4
2014-Oct-28 06:23N 47°35' W 122°22'0 0.5
2014-Oct-28 05:33N 47°35' W 122°21'0 0.0
2014-Oct-28 04:33N 47°35' W 122°21'0 0.0
2014-Oct-28 04:28N 47°35' W 122°21'0 0.0
2014-Oct-28 03:33N 47°35' W 122°21'0 0.0
2014-Oct-28 03:33N 47°35' W 122°21'0 0.0
2014-Oct-28 02:33N 47°35' W 122°21'0 0.0
2014-Oct-28 02:33N 47°35' W 122°21'0 0.0
2014-Oct-28 01:33N 47°35' W 122°21'0 0.0
2014-Oct-28 01:33N 47°35' W 122°21'0 0.0
2014-Oct-28 00:33N 47°35' W 122°21'0 0.0
2014-Oct-28 00:33N 47°35' W 122°21'0 0.0
2014-Oct-27 23:33N 47°35' W 122°21'0 0.0
2014-Oct-27 23:33N 47°35' W 122°21'0 0.0
2014-Oct-27 22:36N 47°35' W 122°21'0 0.0
2014-Oct-27 22:33N 47°35' W 122°21'0 0.0
2014-Oct-27 21:33N 47°35' W 122°21'0 0.0
2014-Oct-27 21:31N 47°35' W 122°21'0 0.0
2014-Oct-27 20:33N 47°35' W 122°21'0 0.0
2014-Oct-27 20:31N 47°35' W 122°21'0 0.0
2014-Oct-27 19:33N 47°35' W 122°21'0 0.0
2014-Oct-27 19:31N 47°35' W 122°21'0 0.0
2014-Oct-27 18:33N 47°35' W 122°21'0 0.0
2014-Oct-27 18:30N 47°35' W 122°21'0 0.0
2014-Oct-27 17:33N 47°35' W 122°21'0 0.1
2014-Oct-27 17:31N 47°35' W 122°21'0 0.0
2014-Oct-27 16:33N 47°35' W 122°21'0 0.1
2014-Oct-27 16:31N 47°35' W 122°21'0 0.0
2014-Oct-27 15:33N 47°35' W 122°21'0 0.1
2014-Oct-27 15:30N 47°35' W 122°21'0 0.0
2014-Oct-27 14:33N 47°35' W 122°21'0 0.0
2014-Oct-27 14:30N 47°35' W 122°21'0 0.0
2014-Oct-27 13:33N 47°35' W 122°21'0 0.0
2014-Oct-27 13:30N 47°35' W 122°21'0 0.0
2014-Oct-27 12:33N 47°35' W 122°21'0 0.0
2014-Oct-27 12:30N 47°35' W 122°21'0 0.0
2014-Oct-27 11:33N 47°35' W 122°21'0 0.0
2014-Oct-27 11:30N 47°35' W 122°21'0 0.4
2014-Oct-27 10:34N 47°36' W 122°21'0 2.2
2014-Oct-27 10:30N 47°36' W 122°21'0 0.2
2014-Oct-27 09:34N 47°35' W 122°21'0 0.7
2014-Oct-27 09:30N 47°35' W 122°21'0 0.2
2014-Oct-27 08:33N 47°35' W 122°21'0 0.0
2014-Oct-27 08:30N 47°35' W 122°21'0 0.0
2014-Oct-27 07:33N 47°35' W 122°21'0 0.0
2014-Oct-27 07:30N 47°35' W 122°21'0 0.0
2014-Oct-27 06:33N 47°35' W 122°21'0 0.0
2014-Oct-27 06:29N 47°35' W 122°21'0 0.0
2014-Oct-27 06:25N 47°35' W 122°21'0 0.0
2014-Oct-27 05:33N 47°35' W 122°21'0 0.0
2014-Oct-27 04:33N 47°35' W 122°21'0 0.0
2014-Oct-27 04:29N 47°35' W 122°21'0 0.0
2014-Oct-27 03:33N 47°35' W 122°21'0 0.0
2014-Oct-27 03:08N 47°35' W 122°21'0 0.0
2014-Oct-27 02:33N 47°35' W 122°21'0 0.0
2014-Oct-27 02:28N 47°35' W 122°21'0 0.0
2014-Oct-27 01:33N 47°35' W 122°21'0 0.0
2014-Oct-27 01:33N 47°35' W 122°21'0 0.0
2014-Oct-27 00:33N 47°35' W 122°21'0 0.0
2014-Oct-27 00:33N 47°35' W 122°21'1 0.5
2014-Oct-26 23:33N 47°36' W 122°20'0 0.0
2014-Oct-26 23:23N 47°36' W 122°20'1 0.6
2014-Oct-26 22:33N 47°35' W 122°21'0 0.0
2014-Oct-26 22:33N 47°35' W 122°21'0 0.0
2014-Oct-26 21:33N 47°35' W 122°21'0 0.0
2014-Oct-26 21:32N 47°35' W 122°21'0 0.0
2014-Oct-26 20:33N 47°35' W 122°21'0 0.0
2014-Oct-26 20:32N 47°35' W 122°21'0 0.0
2014-Oct-26 19:33N 47°35' W 122°21'0 0.0
2014-Oct-26 19:32N 47°35' W 122°21'0 0.0
2014-Oct-26 18:33N 47°35' W 122°21'0 0.1
2014-Oct-26 18:22N 47°35' W 122°21'0 0.0
2014-Oct-26 17:33N 47°35' W 122°21'0 0.0
2014-Oct-26 17:27N 47°35' W 122°21'0 0.3
2014-Oct-26 16:33N 47°36' W 122°21'0 2.8
2014-Oct-26 16:26N 47°35' W 122°21'4 4.3
2014-Oct-26 15:33N 47°34' W 122°26'0 8.5
2014-Oct-26 15:31N 47°33' W 122°26'9 9.7
2014-Oct-26 14:33N 47°24' W 122°22'8 8.2
2014-Oct-26 13:34N 47°16' W 122°24'2 1.7
2014-Oct-26 12:34N 47°18' W 122°26'2 2.1
2014-Oct-26 11:33N 47°20' W 122°27'8 8.5
2014-Oct-26 10:35N 47°28' W 122°25'010.5
2014-Oct-26 10:33N 47°28' W 122°25'110.7
2014-Oct-26 10:30N 47°29' W 122°26'8 8.0
2014-Oct-26 09:33N 47°36' W 122°22'0 8.7
2014-Oct-26 09:30N 47°36' W 122°21'1 0.9
2014-Oct-26 08:33N 47°35' W 122°21'0 1.7
2014-Oct-26 08:30N 47°35' W 122°21'1 0.7
2014-Oct-26 07:33N 47°35' W 122°21'0 0.0
2014-Oct-26 07:30N 47°35' W 122°21'1 0.7
2014-Oct-26 06:34N 47°36' W 122°21'0 1.6
2014-Oct-26 06:30N 47°36' W 122°21'0 0.8
2014-Oct-26 06:00N 47°36' W 122°21'2 5.4
2014-Oct-26 05:33N 47°38' W 122°24'1 0.8
2014-Oct-26 04:33N 47°37' W 122°23'1 9.1
2014-Oct-26 04:29N 47°37' W 122°24'9 9.8
2014-Oct-26 03:33N 47°28' W 122°24'8 8.2
2014-Oct-26 02:33N 47°19' W 122°26'3 3.4
2014-Oct-26 01:33N 47°16' W 122°24'1 1.1
2014-Oct-26 00:33N 47°16' W 122°23'0 0.0
2014-Oct-25 23:33N 47°16' W 122°23'2 2.4
2014-Oct-25 22:33N 47°17' W 122°26'8 7.6
2014-Oct-25 21:33N 47°25' W 122°23'4 9.1
2014-Oct-25 21:04N 47°29' W 122°26'5 9.3
2014-Oct-25 20:33N 47°33' W 122°27'1 9.0
2014-Oct-25 20:29N 47°34' W 122°27'5 5.0
2014-Oct-25 19:33N 47°35' W 122°21'0 0.6
2014-Oct-25 19:29N 47°35' W 122°21'1 0.7
2014-Oct-25 18:33N 47°35' W 122°21'0 0.0
2014-Oct-25 18:29N 47°35' W 122°21'0 0.0
2014-Oct-25 17:33N 47°35' W 122°21'0 0.1
2014-Oct-25 17:29N 47°35' W 122°21'0 0.0
2014-Oct-25 16:33N 47°35' W 122°21'0 0.1
2014-Oct-25 16:28N 47°35' W 122°21'0 0.0
2014-Oct-25 15:33N 47°35' W 122°21'0 0.1
2014-Oct-25 15:29N 47°35' W 122°21'1 0.9
2014-Oct-25 14:33N 47°36' W 122°22'0147.3
2014-Oct-25 14:33N 47°36' W 122°22'1 0.9
2014-Oct-25 13:33N 47°35' W 122°21'0 0.0
2014-Oct-25 13:33N 47°35' W 122°21'0 0.0
2014-Oct-25 12:33N 47°35' W 122°21'0 0.0
2014-Oct-25 12:28N 47°35' W 122°21'0 0.0
2014-Oct-25 11:33N 47°35' W 122°21'0 0.0
2014-Oct-25 11:33N 47°35' W 122°21'1 0.5
2014-Oct-25 10:33N 47°35' W 122°21'0 0.0
2014-Oct-25 10:33N 47°35' W 122°21'0 0.2
2014-Oct-25 09:34N 47°35' W 122°21'0 1.3
2014-Oct-25 09:33N 47°35' W 122°21'1 0.9
2014-Oct-25 08:33N 47°36' W 122°21'0 0.0
2014-Oct-25 08:33N 47°36' W 122°21'1 0.6
2014-Oct-25 07:33N 47°35' W 122°21'0 0.0
2014-Oct-25 07:33N 47°35' W 122°21'0 0.0
2014-Oct-25 06:33N 47°35' W 122°21'0 0.0
2014-Oct-25 06:33N 47°35' W 122°21'0 0.0
2014-Oct-25 05:57N 47°35' W 122°21'0 0.0
2014-Oct-25 05:33N 47°35' W 122°21'0 0.0
2014-Oct-25 04:33N 47°35' W 122°21'0 0.0
2014-Oct-25 04:32N 47°35' W 122°21'0 0.0
2014-Oct-25 03:33N 47°35' W 122°21'0 0.0
2014-Oct-25 03:32N 47°35' W 122°21'0 0.0
2014-Oct-25 02:33N 47°35' W 122°21'0 0.0
2014-Oct-25 02:32N 47°35' W 122°21'0 0.0
2014-Oct-25 01:33N 47°35' W 122°21'0 1.1
2014-Oct-25 01:32N 47°35' W 122°21'0 0.0
2014-Oct-25 00:33N 47°35' W 122°21'0 0.0
2014-Oct-25 00:32N 47°35' W 122°21'0 0.0
2014-Oct-24 23:33N 47°35' W 122°21'0 0.0
2014-Oct-24 23:32N 47°35' W 122°21'0 0.0
2014-Oct-24 22:33N 47°35' W 122°21'0 0.0
2014-Oct-24 22:32N 47°35' W 122°21'0 0.0
2014-Oct-24 21:33N 47°35' W 122°21'0 0.2
2014-Oct-24 21:31N 47°35' W 122°21'0 0.0
2014-Oct-24 20:33N 47°35' W 122°21'0 0.0
2014-Oct-24 20:10N 47°35' W 122°21'0 0.0
2014-Oct-24 19:33N 47°35' W 122°21'0 0.1
2014-Oct-24 19:30N 47°35' W 122°21'0 0.0
2014-Oct-24 18:28N 47°35' W 122°21'0 0.0
2014-Oct-24 18:14N 47°35' W 122°21'0 0.0
2014-Oct-24 17:33N 47°35' W 122°21'0 0.0
2014-Oct-24 17:29N 47°35' W 122°21'0 0.0
2014-Oct-24 16:33N 47°35' W 122°21'0 0.0
2014-Oct-24 16:28N 47°35' W 122°21'0 0.0
2014-Oct-24 15:33N 47°35' W 122°21'0 0.0
2014-Oct-24 15:29N 47°35' W 122°21'0 0.0
2014-Oct-24 14:33N 47°35' W 122°21'0 0.0
2014-Oct-24 14:28N 47°35' W 122°21'0 0.5
2014-Oct-24 13:33N 47°35' W 122°21'0 0.0
2014-Oct-24 13:33N 47°35' W 122°21'4 3.6
2014-Oct-24 12:34N 47°34' W 122°26'076.0
2014-Oct-24 12:33N 47°34' W 122°26'1211.6
2014-Oct-24 11:33N 47°22' W 122°22'511.8
2014-Oct-24 11:07N 47°18' W 122°27'3 5.3
2014-Oct-24 10:33N 47°16' W 122°24'0 0.5
2014-Oct-24 09:34N 47°16' W 122°23'5 5.0
2014-Oct-24 08:33N 47°21' W 122°26'9 9.3
2014-Oct-24 07:33N 47°30' W 122°26'6 6.4
2014-Oct-24 06:33N 47°36' W 122°21'0 1.1
2014-Oct-24 06:22N 47°35' W 122°21'0 0.0
2014-Oct-24 06:02N 47°35' W 122°21'0 0.0
2014-Oct-24 05:33N 47°35' W 122°21'0 0.0
2014-Oct-24 04:33N 47°35' W 122°21'0 0.0
2014-Oct-24 04:32N 47°35' W 122°21'0 0.0
2014-Oct-24 03:33N 47°35' W 122°21'0 0.0
2014-Oct-24 03:32N 47°35' W 122°21'0 0.0
2014-Oct-24 02:33N 47°35' W 122°21'0 0.3
2014-Oct-24 02:32N 47°35' W 122°21'0 0.0
2014-Oct-24 01:33N 47°35' W 122°21'0 0.0
2014-Oct-24 01:32N 47°35' W 122°21'0 0.0
2014-Oct-24 00:33N 47°35' W 122°21'0 0.0
2014-Oct-24 00:32N 47°35' W 122°21'0 0.0
2014-Oct-23 23:33N 47°35' W 122°21'0 0.0
2014-Oct-23 23:32N 47°35' W 122°21'0 0.0
2014-Oct-23 22:33N 47°35' W 122°21'0 0.0
2014-Oct-23 22:31N 47°35' W 122°21'0 0.0
2014-Oct-23 21:33N 47°35' W 122°21'0 0.0
2014-Oct-23 21:31N 47°35' W 122°21'0 0.0
2014-Oct-23 20:33N 47°35' W 122°21'0 0.0
2014-Oct-23 20:31N 47°35' W 122°21'0 0.0
2014-Oct-23 19:33N 47°35' W 122°21'0 0.2
2014-Oct-23 19:31N 47°35' W 122°21'0 0.0
2014-Oct-23 18:33N 47°35' W 122°21'0 0.0
2014-Oct-23 18:31N 47°35' W 122°21'0 0.0
2014-Oct-23 17:33N 47°35' W 122°21'0 0.0
2014-Oct-23 17:31N 47°35' W 122°21'0 0.0
2014-Oct-23 16:33N 47°35' W 122°21'0 0.0
2014-Oct-23 16:31N 47°35' W 122°21'0 0.0
2014-Oct-23 15:33N 47°35' W 122°21'0 0.0
2014-Oct-23 15:31N 47°35' W 122°21'0 0.0
2014-Oct-23 14:33N 47°35' W 122°21'0 0.0
2014-Oct-23 14:31N 47°35' W 122°21'0 0.0
2014-Oct-23 13:33N 47°35' W 122°21'0 0.0
2014-Oct-23 13:30N 47°35' W 122°21'1 0.6
2014-Oct-23 12:33N 47°35' W 122°21'0 2.3
2014-Oct-23 12:30N 47°35' W 122°21'0 0.5
2014-Oct-23 11:33N 47°35' W 122°21'0 0.0
2014-Oct-23 11:30N 47°35' W 122°21'0 0.0
2014-Oct-23 10:33N 47°35' W 122°21'0 0.1
2014-Oct-23 10:30N 47°35' W 122°21'0 0.0
2014-Oct-23 09:33N 47°35' W 122°21'0 0.0
2014-Oct-23 09:30N 47°35' W 122°21'0 0.0
2014-Oct-23 08:33N 47°35' W 122°21'0 0.1
2014-Oct-23 08:30N 47°35' W 122°21'0 0.0
2014-Oct-23 07:33N 47°35' W 122°21'0 0.0
2014-Oct-23 07:30N 47°35' W 122°21'0 0.0
2014-Oct-23 06:33N 47°35' W 122°21'0 0.1
2014-Oct-23 06:30N 47°35' W 122°21'0 0.0
2014-Oct-23 05:55N 47°35' W 122°21'0 0.0
2014-Oct-23 05:33N 47°35' W 122°21'0 0.0
2014-Oct-23 04:33N 47°35' W 122°21'0 0.0
2014-Oct-23 04:29N 47°35' W 122°21'0 0.0
2014-Oct-23 03:33N 47°35' W 122°21'0 0.1
2014-Oct-23 03:29N 47°35' W 122°21'0 0.0
2014-Oct-23 02:32N 47°35' W 122°21'0 0.0
2014-Oct-23 02:29N 47°35' W 122°21'0 0.0
2014-Oct-23 01:33N 47°35' W 122°21'0 0.1
2014-Oct-23 01:29N 47°35' W 122°21'0 0.1
2014-Oct-23 00:33N 47°35' W 122°21'0 4.0
2014-Oct-23 00:29N 47°36' W 122°21'0 0.3
2014-Oct-22 23:34N 47°35' W 122°21'0 0.1
2014-Oct-22 23:28N 47°35' W 122°21'0 0.2
2014-Oct-22 22:34N 47°35' W 122°21'0 0.0
2014-Oct-22 22:33N 47°35' W 122°21'0 0.0
2014-Oct-22 21:34N 47°35' W 122°21'0 0.0
2014-Oct-22 21:33N 47°35' W 122°21'0 0.0
2014-Oct-22 20:33N 47°35' W 122°21'0 0.0
2014-Oct-22 20:33N 47°35' W 122°21'0 0.0
2014-Oct-22 19:34N 47°35' W 122°21'0 0.0
2014-Oct-22 19:33N 47°35' W 122°21'0 0.0
2014-Oct-22 18:34N 47°35' W 122°21'0 0.0
2014-Oct-22 18:33N 47°35' W 122°21'0 0.0
2014-Oct-22 17:33N 47°35' W 122°21'0 0.0
2014-Oct-22 17:33N 47°35' W 122°21'0 0.0
2014-Oct-22 16:33N 47°35' W 122°21'0 0.0
2014-Oct-22 16:13N 47°35' W 122°21'0 0.0
2014-Oct-22 15:33N 47°35' W 122°21'0 0.7
2014-Oct-22 15:33N 47°35' W 122°21'0 0.0
2014-Oct-22 14:33N 47°35' W 122°21'0 0.0
2014-Oct-22 14:33N 47°35' W 122°21'0 0.4
2014-Oct-22 13:34N 47°36' W 122°21'0 2.0
2014-Oct-22 13:32N 47°36' W 122°21'0 0.5
2014-Oct-22 12:34N 47°35' W 122°21'0 2.1
2014-Oct-22 12:32N 47°35' W 122°21'0 0.3
2014-Oct-22 11:34N 47°36' W 122°21'0 2.9
2014-Oct-22 11:32N 47°35' W 122°21'0 0.3
2014-Oct-22 10:33N 47°35' W 122°21'0 0.0
2014-Oct-22 10:32N 47°35' W 122°21'0 0.0
2014-Oct-22 09:33N 47°35' W 122°21'0 0.0
2014-Oct-22 09:32N 47°35' W 122°21'0 0.0
2014-Oct-22 08:33N 47°35' W 122°21'0 0.0
2014-Oct-22 08:32N 47°35' W 122°21'0 0.0
2014-Oct-22 07:33N 47°35' W 122°21'0 0.3
2014-Oct-22 07:32N 47°35' W 122°21'0 0.0
2014-Oct-22 06:33N 47°35' W 122°21'0 0.0
2014-Oct-22 06:32N 47°35' W 122°21'0 0.0
2014-Oct-22 05:57N 47°35' W 122°21'0 0.0
2014-Oct-22 05:33N 47°35' W 122°21'7 6.8
2014-Oct-22 04:32N 47°41' W 122°26'0 8.3
2014-Oct-22 04:31N 47°42' W 122°26'8 7.8
2014-Oct-22 03:33N 47°49' W 122°24'0 8.3
2014-Oct-22 03:31N 47°49' W 122°24'9 9.0
2014-Oct-22 02:33N 47°57' W 122°19'4 4.0
2014-Oct-22 01:34N 47°59' W 122°13'9 8.6
2014-Oct-22 00:33N 47°52' W 122°22'7 9.9
2014-Oct-21 23:53N 47°46' W 122°25'  
Track history (hours):
 
Tides and Currents Weather Stations Pressure Air Temp Water Temp Dewpoint Dewpoint Depression Visibility Wind Speed Wind Dir Waves Ship Positions

Goliah

Owner: Crowley Marine Services, Inc., Seattle, WA. More information available from US FCC via Universal Licensing System and Coast Guard Vessel Documentation Center.

Last reported at 2014-Oct-31 23:34 UTC. Time now 2014-Nov-01 00:34 UTC.
Position N 47°35' W 122°21'.

Length 33 m; draft 4.8 m.

Type: Tug. MMSI: 366898250.

Date/timePositionNaut miles runAvg speedWind from/ knotsBaromVisibWave heightAir tempDewpointWater temp
2014-Oct-31 23:34N 47°35' W 122°21'0 0.1
2014-Oct-31 23:30N 47°35' W 122°21'0 0.0
2014-Oct-31 22:34N 47°35' W 122°21'0 0.1
2014-Oct-31 22:30N 47°35' W 122°21'0 0.0
2014-Oct-31 21:34N 47°35' W 122°21'0 0.0
2014-Oct-31 21:29N 47°35' W 122°21'0 0.0
2014-Oct-31 20:34N 47°35' W 122°21'0 0.0
2014-Oct-31 20:29N 47°35' W 122°21'0 0.3
2014-Oct-31 19:33N 47°35' W 122°21'0 0.1
2014-Oct-31 19:29N 47°35' W 122°21'0 0.0
2014-Oct-31 18:33N 47°35' W 122°21'0 0.0
2014-Oct-31 18:29N 47°35' W 122°21'0 0.3
2014-Oct-31 17:34N 47°36' W 122°21'1 1.8
2014-Oct-31 17:01N 47°36' W 122°23'1 2.5
2014-Oct-31 16:33N 47°35' W 122°21'0 0.0
2014-Oct-31 16:31N 47°35' W 122°21'0 0.0
2014-Oct-31 15:33N 47°35' W 122°21'0 0.0
2014-Oct-31 15:31N 47°35' W 122°21'0 0.0
2014-Oct-31 14:34N 47°35' W 122°21'0 0.2
2014-Oct-31 14:31N 47°35' W 122°21'0 0.5
2014-Oct-31 13:33N 47°36' W 122°21'0 1.2
2014-Oct-31 13:31N 47°36' W 122°21'0 0.4
2014-Oct-31 12:33N 47°35' W 122°21'0 0.0
2014-Oct-31 12:31N 47°35' W 122°21'0 0.0
2014-Oct-31 11:34N 47°35' W 122°21'0 0.0
2014-Oct-31 11:31N 47°35' W 122°21'0 0.0
2014-Oct-31 10:34N 47°35' W 122°21'0 0.0
2014-Oct-31 10:31N 47°35' W 122°21'0 0.0
2014-Oct-31 09:34N 47°35' W 122°21'0 0.1
2014-Oct-31 09:31N 47°35' W 122°21'0 0.0
2014-Oct-31 08:34N 47°35' W 122°21'0 0.0
2014-Oct-31 08:25N 47°35' W 122°21'0 0.0
2014-Oct-31 07:33N 47°35' W 122°21'0 0.0
2014-Oct-31 07:30N 47°35' W 122°21'1 1.4
2014-Oct-31 06:34N 47°36' W 122°23'0 9.0
2014-Oct-31 06:30N 47°36' W 122°23'2 9.2
2014-Oct-31 06:20N 47°35' W 122°25'7 9.4
2014-Oct-31 05:34N 47°28' W 122°24'8 7.9
2014-Oct-31 04:34N 47°20' W 122°25'5 4.6
2014-Oct-31 03:34N 47°16' W 122°23'3 2.8
2014-Oct-31 02:34N 47°17' W 122°26'3 2.5
2014-Oct-31 01:34N 47°16' W 122°23'4 4.3
2014-Oct-31 00:34N 47°19' W 122°27'1010.4
2014-Oct-30 23:34N 47°30' W 122°24'411.2
2014-Oct-30 23:14N 47°33' W 122°25'3 5.1
2014-Oct-30 22:34N 47°35' W 122°21'0 0.1
2014-Oct-30 22:29N 47°35' W 122°21'2 2.4
2014-Oct-30 21:34N 47°37' W 122°23'0 0.0
2014-Oct-30 21:34N 47°37' W 122°23'2 1.7
2014-Oct-30 20:34N 47°35' W 122°21'0 0.0
2014-Oct-30 20:33N 47°35' W 122°21'0 0.0
2014-Oct-30 19:34N 47°35' W 122°21'0 0.0
2014-Oct-30 19:33N 47°35' W 122°21'0 0.1
2014-Oct-30 18:34N 47°35' W 122°21'0 5.3
2014-Oct-30 18:33N 47°36' W 122°21'1 1.0
2014-Oct-30 17:34N 47°35' W 122°21'0 1.5
2014-Oct-30 17:33N 47°35' W 122°21'1 0.8
2014-Oct-30 16:34N 47°35' W 122°21'0 0.9
2014-Oct-30 16:33N 47°35' W 122°21'0 0.3
2014-Oct-30 15:34N 47°36' W 122°21'0 4.1
2014-Oct-30 15:33N 47°36' W 122°21'7 7.0
2014-Oct-30 14:34N 47°29' W 122°24'8 8.4
2014-Oct-30 13:34N 47°21' W 122°24'5 5.0
2014-Oct-30 12:33N 47°16' W 122°24'2 2.0
2014-Oct-30 11:33N 47°17' W 122°26'0 0.5
2014-Oct-30 10:33N 47°18' W 122°26'6 5.8
2014-Oct-30 09:33N 47°23' W 122°22'3 8.8
2014-Oct-30 09:12N 47°26' W 122°24'6 8.9
2014-Oct-30 08:33N 47°31' W 122°27'1 9.0
2014-Oct-30 08:27N 47°32' W 122°27'8 8.7
2014-Oct-30 07:34N 47°40' W 122°29'0 8.5
2014-Oct-30 07:32N 47°40' W 122°29'8 8.5
2014-Oct-30 06:34N 47°49' W 122°28'0 9.0
2014-Oct-30 06:32N 47°49' W 122°28'3 9.0
2014-Oct-30 06:12N 47°52' W 122°29'5 8.0
2014-Oct-30 05:34N 47°56' W 122°33'9 8.6
2014-Oct-30 04:32N 48°04' W 122°39'18 8.7
2014-Oct-30 02:26N 48°21' W 122°46'8 9.2
2014-Oct-30 01:33N 48°29' W 122°44'6 6.1
2014-Oct-30 00:34N 48°31' W 122°35'0 0.5
2014-Oct-29 23:34N 48°31' W 122°35'4 3.7
2014-Oct-29 22:33N 48°31' W 122°41'10 8.3
2014-Oct-29 21:21N 48°22' W 122°45'810.4
2014-Oct-29 20:33N 48°13' W 122°48'1312.8
2014-Oct-29 19:33N 48°03' W 122°37'712.8
2014-Oct-29 19:01N 47°57' W 122°32'511.3
2014-Oct-29 18:33N 47°52' W 122°28'112.0
2014-Oct-29 18:30N 47°52' W 122°28'1112.0
2014-Oct-29 17:33N 47°40' W 122°27'112.6
2014-Oct-29 17:30N 47°40' W 122°27'6 6.5
2014-Oct-29 16:34N 47°35' W 122°21'0 0.4
2014-Oct-29 16:30N 47°35' W 122°21'1 1.1
2014-Oct-29 15:33N 47°36' W 122°21'0 8.7
2014-Oct-29 15:30N 47°36' W 122°22'8 8.8
2014-Oct-29 14:33N 47°28' W 122°24'9 9.0
2014-Oct-29 13:33N 47°19' W 122°27'4 4.1
2014-Oct-29 12:33N 47°16' W 122°23'2 1.8
2014-Oct-29 11:33N 47°17' W 122°25'1 0.6
2014-Oct-29 10:33N 47°17' W 122°25'1 1.4
2014-Oct-29 09:33N 47°18' W 122°26'1 1.2
2014-Oct-29 08:33N 47°19' W 122°27'7 6.6
2014-Oct-29 07:33N 47°24' W 122°23'6 7.5
2014-Oct-29 06:43N 47°30' W 122°26'1 8.1
2014-Oct-29 06:33N 47°31' W 122°26'1 7.6
2014-Oct-29 06:24N 47°33' W 122°27'1 7.7
2014-Oct-29 06:13N 47°34' W 122°26'4 6.6
2014-Oct-29 05:33N 47°37' W 122°22'0 0.1
2014-Oct-29 04:33N 47°37' W 122°22'0 0.3
2014-Oct-29 04:28N 47°37' W 122°22'2 2.3
2014-Oct-29 03:33N 47°35' W 122°21'0 0.1
2014-Oct-29 03:28N 47°35' W 122°21'0 0.0
2014-Oct-29 02:33N 47°35' W 122°21'0 0.0
2014-Oct-29 02:28N 47°35' W 122°21'0 0.0
2014-Oct-29 01:33N 47°35' W 122°21'0 0.0
2014-Oct-29 01:28N 47°35' W 122°21'0 0.0
2014-Oct-29 00:33N 47°35' W 122°21'0 0.1
2014-Oct-29 00:28N 47°35' W 122°21'0 0.0
2014-Oct-28 23:33N 47°35' W 122°21'0 0.0
2014-Oct-28 23:16N 47°35' W 122°21'0 0.0
2014-Oct-28 22:33N 47°35' W 122°21'0 0.0
2014-Oct-28 21:59N 47°35' W 122°21'0 0.0
2014-Oct-28 21:33N 47°35' W 122°21'0 0.1
2014-Oct-28 21:29N 47°35' W 122°21'1 0.6
2014-Oct-28 20:33N 47°35' W 122°22'0 0.1
2014-Oct-28 20:28N 47°35' W 122°22'1 1.3
2014-Oct-28 19:33N 47°36' W 122°22'0 0.8
2014-Oct-28 19:28N 47°36' W 122°22'1 1.1
2014-Oct-28 18:33N 47°35' W 122°21'0 0.0
2014-Oct-28 18:32N 47°35' W 122°21'0 0.0
2014-Oct-28 17:26N 47°35' W 122°21'0 0.0
2014-Oct-28 16:54N 47°35' W 122°21'0 0.0
2014-Oct-28 16:33N 47°35' W 122°21'0 0.0
2014-Oct-28 16:30N 47°35' W 122°21'0 0.0
2014-Oct-28 15:33N 47°35' W 122°21'0 0.0
2014-Oct-28 15:30N 47°35' W 122°21'0 0.0
2014-Oct-28 14:33N 47°35' W 122°21'0 0.1
2014-Oct-28 14:29N 47°35' W 122°21'0 0.0
2014-Oct-28 13:33N 47°35' W 122°21'0 0.0
2014-Oct-28 13:29N 47°35' W 122°21'0 0.0
2014-Oct-28 12:33N 47°35' W 122°21'0 0.1
2014-Oct-28 12:29N 47°35' W 122°21'0 0.0
2014-Oct-28 11:33N 47°35' W 122°21'0 0.0
2014-Oct-28 11:29N 47°35' W 122°21'0 0.0
2014-Oct-28 10:33N 47°35' W 122°21'0 0.1
2014-Oct-28 10:29N 47°35' W 122°21'0 0.0
2014-Oct-28 09:33N 47°35' W 122°21'0 0.0
2014-Oct-28 09:29N 47°35' W 122°21'0 0.0
2014-Oct-28 08:33N 47°35' W 122°21'0 0.1
2014-Oct-28 08:29N 47°35' W 122°21'3 3.0
2014-Oct-28 07:33N 47°37' W 122°24'0 3.1
2014-Oct-28 07:29N 47°37' W 122°24'3 3.0
2014-Oct-28 06:33N 47°35' W 122°22'0 2.1
2014-Oct-28 06:28N 47°35' W 122°22'0 3.4
2014-Oct-28 06:23N 47°35' W 122°22'0 0.5
2014-Oct-28 05:33N 47°35' W 122°21'0 0.0
2014-Oct-28 04:33N 47°35' W 122°21'0 0.0
2014-Oct-28 04:28N 47°35' W 122°21'0 0.0
2014-Oct-28 03:33N 47°35' W 122°21'0 0.0
2014-Oct-28 03:33N 47°35' W 122°21'0 0.0
2014-Oct-28 02:33N 47°35' W 122°21'0 0.0
2014-Oct-28 02:33N 47°35' W 122°21'0 0.0
2014-Oct-28 01:33N 47°35' W 122°21'0 0.0
2014-Oct-28 01:33N 47°35' W 122°21'0 0.0
2014-Oct-28 00:33N 47°35' W 122°21'0 0.0
2014-Oct-28 00:33N 47°35' W 122°21'0 0.0
2014-Oct-27 23:33N 47°35' W 122°21'0 0.0
2014-Oct-27 23:33N 47°35' W 122°21'0 0.0
2014-Oct-27 22:36N 47°35' W 122°21'0 0.0
2014-Oct-27 22:33N 47°35' W 122°21'0 0.0
2014-Oct-27 21:33N 47°35' W 122°21'0 0.0
2014-Oct-27 21:31N 47°35' W 122°21'0 0.0
2014-Oct-27 20:33N 47°35' W 122°21'0 0.0
2014-Oct-27 20:31N 47°35' W 122°21'0 0.0
2014-Oct-27 19:33N 47°35' W 122°21'0 0.0
2014-Oct-27 19:31N 47°35' W 122°21'0 0.0
2014-Oct-27 18:33N 47°35' W 122°21'0 0.0
2014-Oct-27 18:30N 47°35' W 122°21'0 0.0
2014-Oct-27 17:33N 47°35' W 122°21'0 0.1
2014-Oct-27 17:31N 47°35' W 122°21'0 0.0
2014-Oct-27 16:33N 47°35' W 122°21'0 0.1
2014-Oct-27 16:31N 47°35' W 122°21'0 0.0
2014-Oct-27 15:33N 47°35' W 122°21'0 0.1
2014-Oct-27 15:30N 47°35' W 122°21'0 0.0
2014-Oct-27 14:33N 47°35' W 122°21'0 0.0
2014-Oct-27 14:30N 47°35' W 122°21'0 0.0
2014-Oct-27 13:33N 47°35' W 122°21'0 0.0
2014-Oct-27 13:30N 47°35' W 122°21'0 0.0
2014-Oct-27 12:33N 47°35' W 122°21'0 0.0
2014-Oct-27 12:30N 47°35' W 122°21'0 0.0
2014-Oct-27 11:33N 47°35' W 122°21'0 0.0
2014-Oct-27 11:30N 47°35' W 122°21'0 0.4
2014-Oct-27 10:34N 47°36' W 122°21'0 2.2
2014-Oct-27 10:30N 47°36' W 122°21'0 0.2
2014-Oct-27 09:34N 47°35' W 122°21'0 0.7
2014-Oct-27 09:30N 47°35' W 122°21'0 0.2
2014-Oct-27 08:33N 47°35' W 122°21'0 0.0
2014-Oct-27 08:30N 47°35' W 122°21'0 0.0
2014-Oct-27 07:33N 47°35' W 122°21'0 0.0
2014-Oct-27 07:30N 47°35' W 122°21'0 0.0
2014-Oct-27 06:33N 47°35' W 122°21'0 0.0
2014-Oct-27 06:29N 47°35' W 122°21'0 0.0
2014-Oct-27 06:25N 47°35' W 122°21'0 0.0
2014-Oct-27 05:33N 47°35' W 122°21'0 0.0
2014-Oct-27 04:33N 47°35' W 122°21'0 0.0
2014-Oct-27 04:29N 47°35' W 122°21'0 0.0
2014-Oct-27 03:33N 47°35' W 122°21'0 0.0
2014-Oct-27 03:08N 47°35' W 122°21'0 0.0
2014-Oct-27 02:33N 47°35' W 122°21'0 0.0
2014-Oct-27 02:28N 47°35' W 122°21'0 0.0
2014-Oct-27 01:33N 47°35' W 122°21'0 0.0
2014-Oct-27 01:33N 47°35' W 122°21'0 0.0
2014-Oct-27 00:33N 47°35' W 122°21'0 0.0
2014-Oct-27 00:33N 47°35' W 122°21'1 0.5
2014-Oct-26 23:33N 47°36' W 122°20'0 0.0
2014-Oct-26 23:23N 47°36' W 122°20'1 0.6
2014-Oct-26 22:33N 47°35' W 122°21'0 0.0
2014-Oct-26 22:33N 47°35' W 122°21'0 0.0
2014-Oct-26 21:33N 47°35' W 122°21'0 0.0
2014-Oct-26 21:32N 47°35' W 122°21'0 0.0
2014-Oct-26 20:33N 47°35' W 122°21'0 0.0
2014-Oct-26 20:32N 47°35' W 122°21'0 0.0
2014-Oct-26 19:33N 47°35' W 122°21'0 0.0
2014-Oct-26 19:32N 47°35' W 122°21'0 0.0
2014-Oct-26 18:33N 47°35' W 122°21'0 0.1
2014-Oct-26 18:22N 47°35' W 122°21'0 0.0
2014-Oct-26 17:33N 47°35' W 122°21'0 0.0
2014-Oct-26 17:27N 47°35' W 122°21'0 0.3
2014-Oct-26 16:33N 47°36' W 122°21'0 2.8
2014-Oct-26 16:26N 47°35' W 122°21'4 4.3
2014-Oct-26 15:33N 47°34' W 122°26'0 8.5
2014-Oct-26 15:31N 47°33' W 122°26'9 9.7
2014-Oct-26 14:33N 47°24' W 122°22'8 8.2
2014-Oct-26 13:34N 47°16' W 122°24'2 1.7
2014-Oct-26 12:34N 47°18' W 122°26'2 2.1
2014-Oct-26 11:33N 47°20' W 122°27'8 8.5
2014-Oct-26 10:35N 47°28' W 122°25'010.5
2014-Oct-26 10:33N 47°28' W 122°25'110.7
2014-Oct-26 10:30N 47°29' W 122°26'8 8.0
2014-Oct-26 09:33N 47°36' W 122°22'0 8.7
2014-Oct-26 09:30N 47°36' W 122°21'1 0.9
2014-Oct-26 08:33N 47°35' W 122°21'0 1.7
2014-Oct-26 08:30N 47°35' W 122°21'1 0.7
2014-Oct-26 07:33N 47°35' W 122°21'0 0.0
2014-Oct-26 07:30N 47°35' W 122°21'1 0.7
2014-Oct-26 06:34N 47°36' W 122°21'0 1.6
2014-Oct-26 06:30N 47°36' W 122°21'0 0.8
2014-Oct-26 06:00N 47°36' W 122°21'2 5.4
2014-Oct-26 05:33N 47°38' W 122°24'1 0.8
2014-Oct-26 04:33N 47°37' W 122°23'1 9.1
2014-Oct-26 04:29N 47°37' W 122°24'9 9.8
2014-Oct-26 03:33N 47°28' W 122°24'8 8.2
2014-Oct-26 02:33N 47°19' W 122°26'3 3.4
2014-Oct-26 01:33N 47°16' W 122°24'1 1.1
2014-Oct-26 00:33N 47°16' W 122°23'0 0.0
2014-Oct-25 23:33N 47°16' W 122°23'2 2.4
2014-Oct-25 22:33N 47°17' W 122°26'8 7.6
2014-Oct-25 21:33N 47°25' W 122°23'4 9.1
2014-Oct-25 21:04N 47°29' W 122°26'5 9.3
2014-Oct-25 20:33N 47°33' W 122°27'1 9.0
2014-Oct-25 20:29N 47°34' W 122°27'5 5.0
2014-Oct-25 19:33N 47°35' W 122°21'0 0.6
2014-Oct-25 19:29N 47°35' W 122°21'1 0.7
2014-Oct-25 18:33N 47°35' W 122°21'0 0.0
2014-Oct-25 18:29N 47°35' W 122°21'0 0.0
2014-Oct-25 17:33N 47°35' W 122°21'0 0.1
2014-Oct-25 17:29N 47°35' W 122°21'0 0.0
2014-Oct-25 16:33N 47°35' W 122°21'0 0.1
2014-Oct-25 16:28N 47°35' W 122°21'0 0.0
2014-Oct-25 15:33N 47°35' W 122°21'0 0.1
2014-Oct-25 15:29N 47°35' W 122°21'1 0.9
2014-Oct-25 14:33N 47°36' W 122°22'0147.3
2014-Oct-25 14:33N 47°36' W 122°22'1 0.9
2014-Oct-25 13:33N 47°35' W 122°21'0 0.0
2014-Oct-25 13:33N 47°35' W 122°21'0 0.0
2014-Oct-25 12:33N 47°35' W 122°21'0 0.0
2014-Oct-25 12:28N 47°35' W 122°21'0 0.0
2014-Oct-25 11:33N 47°35' W 122°21'0 0.0
2014-Oct-25 11:33N 47°35' W 122°21'1 0.5
2014-Oct-25 10:33N 47°35' W 122°21'0 0.0
2014-Oct-25 10:33N 47°35' W 122°21'0 0.2
2014-Oct-25 09:34N 47°35' W 122°21'0 1.3
2014-Oct-25 09:33N 47°35' W 122°21'1 0.9
2014-Oct-25 08:33N 47°36' W 122°21'0 0.0
2014-Oct-25 08:33N 47°36' W 122°21'1 0.6
2014-Oct-25 07:33N 47°35' W 122°21'0 0.0
2014-Oct-25 07:33N 47°35' W 122°21'0 0.0
2014-Oct-25 06:33N 47°35' W 122°21'0 0.0
2014-Oct-25 06:33N 47°35' W 122°21'0 0.0
2014-Oct-25 05:57N 47°35' W 122°21'0 0.0
2014-Oct-25 05:33N 47°35' W 122°21'0 0.0
2014-Oct-25 04:33N 47°35' W 122°21'0 0.0
2014-Oct-25 04:32N 47°35' W 122°21'0 0.0
2014-Oct-25 03:33N 47°35' W 122°21'0 0.0
2014-Oct-25 03:32N 47°35' W 122°21'0 0.0
2014-Oct-25 02:33N 47°35' W 122°21'0 0.0
2014-Oct-25 02:32N 47°35' W 122°21'0 0.0
2014-Oct-25 01:33N 47°35' W 122°21'0 1.1
2014-Oct-25 01:32N 47°35' W 122°21'0 0.0
2014-Oct-25 00:33N 47°35' W 122°21'0 0.0
2014-Oct-25 00:32N 47°35' W 122°21'0 0.0
2014-Oct-24 23:33N 47°35' W 122°21'0 0.0
2014-Oct-24 23:32N 47°35' W 122°21'0 0.0
2014-Oct-24 22:33N 47°35' W 122°21'0 0.0
2014-Oct-24 22:32N 47°35' W 122°21'0 0.0
2014-Oct-24 21:33N 47°35' W 122°21'0 0.2
2014-Oct-24 21:31N 47°35' W 122°21'0 0.0
2014-Oct-24 20:33N 47°35' W 122°21'0 0.0
2014-Oct-24 20:10N 47°35' W 122°21'0 0.0
2014-Oct-24 19:33N 47°35' W 122°21'0 0.1
2014-Oct-24 19:30N 47°35' W 122°21'0 0.0
2014-Oct-24 18:28N 47°35' W 122°21'0 0.0
2014-Oct-24 18:14N 47°35' W 122°21'0 0.0
2014-Oct-24 17:33N 47°35' W 122°21'0 0.0
2014-Oct-24 17:29N 47°35' W 122°21'0 0.0
2014-Oct-24 16:33N 47°35' W 122°21'0 0.0
2014-Oct-24 16:28N 47°35' W 122°21'0 0.0
2014-Oct-24 15:33N 47°35' W 122°21'0 0.0
2014-Oct-24 15:29N 47°35' W 122°21'0 0.0
2014-Oct-24 14:33N 47°35' W 122°21'0 0.0
2014-Oct-24 14:28N 47°35' W 122°21'0 0.5
2014-Oct-24 13:33N 47°35' W 122°21'0 0.0
2014-Oct-24 13:33N 47°35' W 122°21'4 3.6
2014-Oct-24 12:34N 47°34' W 122°26'076.0
2014-Oct-24 12:33N 47°34' W 122°26'1211.6
2014-Oct-24 11:33N 47°22' W 122°22'511.8
2014-Oct-24 11:07N 47°18' W 122°27'3 5.3
2014-Oct-24 10:33N 47°16' W 122°24'0 0.5
2014-Oct-24 09:34N 47°16' W 122°23'5 5.0
2014-Oct-24 08:33N 47°21' W 122°26'9 9.3
2014-Oct-24 07:33N 47°30' W 122°26'6 6.4
2014-Oct-24 06:33N 47°36' W 122°21'0 1.1
2014-Oct-24 06:22N 47°35' W 122°21'0 0.0
2014-Oct-24 06:02N 47°35' W 122°21'0 0.0
2014-Oct-24 05:33N 47°35' W 122°21'0 0.0
2014-Oct-24 04:33N 47°35' W 122°21'0 0.0
2014-Oct-24 04:32N 47°35' W 122°21'0 0.0
2014-Oct-24 03:33N 47°35' W 122°21'0 0.0
2014-Oct-24 03:32N 47°35' W 122°21'0 0.0
2014-Oct-24 02:33N 47°35' W 122°21'0 0.3
2014-Oct-24 02:32N 47°35' W 122°21'0 0.0
2014-Oct-24 01:33N 47°35' W 122°21'0 0.0
2014-Oct-24 01:32N 47°35' W 122°21'0 0.0
2014-Oct-24 00:33N 47°35' W 122°21'0 0.0
2014-Oct-24 00:32N 47°35' W 122°21'0 0.0
2014-Oct-23 23:33N 47°35' W 122°21'0 0.0
2014-Oct-23 23:32N 47°35' W 122°21'0 0.0
2014-Oct-23 22:33N 47°35' W 122°21'0 0.0
2014-Oct-23 22:31N 47°35' W 122°21'0 0.0
2014-Oct-23 21:33N 47°35' W 122°21'0 0.0
2014-Oct-23 21:31N 47°35' W 122°21'0 0.0
2014-Oct-23 20:33N 47°35' W 122°21'0 0.0
2014-Oct-23 20:31N 47°35' W 122°21'0 0.0
2014-Oct-23 19:33N 47°35' W 122°21'0 0.2
2014-Oct-23 19:31N 47°35' W 122°21'0 0.0
2014-Oct-23 18:33N 47°35' W 122°21'0 0.0
2014-Oct-23 18:31N 47°35' W 122°21'0 0.0
2014-Oct-23 17:33N 47°35' W 122°21'0 0.0
2014-Oct-23 17:31N 47°35' W 122°21'0 0.0
2014-Oct-23 16:33N 47°35' W 122°21'0 0.0
2014-Oct-23 16:31N 47°35' W 122°21'0 0.0
2014-Oct-23 15:33N 47°35' W 122°21'0 0.0
2014-Oct-23 15:31N 47°35' W 122°21'0 0.0
2014-Oct-23 14:33N 47°35' W 122°21'0 0.0
2014-Oct-23 14:31N 47°35' W 122°21'0 0.0
2014-Oct-23 13:33N 47°35' W 122°21'0 0.0
2014-Oct-23 13:30N 47°35' W 122°21'1 0.6
2014-Oct-23 12:33N 47°35' W 122°21'0 2.3
2014-Oct-23 12:30N 47°35' W 122°21'0 0.5
2014-Oct-23 11:33N 47°35' W 122°21'0 0.0
2014-Oct-23 11:30N 47°35' W 122°21'0 0.0
2014-Oct-23 10:33N 47°35' W 122°21'0 0.1
2014-Oct-23 10:30N 47°35' W 122°21'0 0.0
2014-Oct-23 09:33N 47°35' W 122°21'0 0.0
2014-Oct-23 09:30N 47°35' W 122°21'0 0.0
2014-Oct-23 08:33N 47°35' W 122°21'0 0.1
2014-Oct-23 08:30N 47°35' W 122°21'0 0.0
2014-Oct-23 07:33N 47°35' W 122°21'0 0.0
2014-Oct-23 07:30N 47°35' W 122°21'0 0.0
2014-Oct-23 06:33N 47°35' W 122°21'0 0.1
2014-Oct-23 06:30N 47°35' W 122°21'0 0.0
2014-Oct-23 05:55N 47°35' W 122°21'0 0.0
2014-Oct-23 05:33N 47°35' W 122°21'0 0.0
2014-Oct-23 04:33N 47°35' W 122°21'0 0.0
2014-Oct-23 04:29N 47°35' W 122°21'0 0.0
2014-Oct-23 03:33N 47°35' W 122°21'0 0.1
2014-Oct-23 03:29N 47°35' W 122°21'0 0.0
2014-Oct-23 02:32N 47°35' W 122°21'0 0.0
2014-Oct-23 02:29N 47°35' W 122°21'0 0.0
2014-Oct-23 01:33N 47°35' W 122°21'0 0.1
2014-Oct-23 01:29N 47°35' W 122°21'0 0.1
2014-Oct-23 00:33N 47°35' W 122°21'0 4.0
2014-Oct-23 00:29N 47°36' W 122°21'0 0.3
2014-Oct-22 23:34N 47°35' W 122°21'0 0.1
2014-Oct-22 23:28N 47°35' W 122°21'0 0.2
2014-Oct-22 22:34N 47°35' W 122°21'0 0.0
2014-Oct-22 22:33N 47°35' W 122°21'0 0.0
2014-Oct-22 21:34N 47°35' W 122°21'0 0.0
2014-Oct-22 21:33N 47°35' W 122°21'0 0.0
2014-Oct-22 20:33N 47°35' W 122°21'0 0.0
2014-Oct-22 20:33N 47°35' W 122°21'0 0.0
2014-Oct-22 19:34N 47°35' W 122°21'0 0.0
2014-Oct-22 19:33N 47°35' W 122°21'0 0.0
2014-Oct-22 18:34N 47°35' W 122°21'0 0.0
2014-Oct-22 18:33N 47°35' W 122°21'0 0.0
2014-Oct-22 17:33N 47°35' W 122°21'0 0.0
2014-Oct-22 17:33N 47°35' W 122°21'0 0.0
2014-Oct-22 16:33N 47°35' W 122°21'0 0.0
2014-Oct-22 16:13N 47°35' W 122°21'0 0.0
2014-Oct-22 15:33N 47°35' W 122°21'0 0.7
2014-Oct-22 15:33N 47°35' W 122°21'0 0.0
2014-Oct-22 14:33N 47°35' W 122°21'0 0.0
2014-Oct-22 14:33N 47°35' W 122°21'0 0.4
2014-Oct-22 13:34N 47°36' W 122°21'0 2.0
2014-Oct-22 13:32N 47°36' W 122°21'0 0.5
2014-Oct-22 12:34N 47°35' W 122°21'0 2.1
2014-Oct-22 12:32N 47°35' W 122°21'0 0.3
2014-Oct-22 11:34N 47°36' W 122°21'0 2.9
2014-Oct-22 11:32N 47°35' W 122°21'0 0.3
2014-Oct-22 10:33N 47°35' W 122°21'0 0.0
2014-Oct-22 10:32N 47°35' W 122°21'0 0.0
2014-Oct-22 09:33N 47°35' W 122°21'0 0.0
2014-Oct-22 09:32N 47°35' W 122°21'0 0.0
2014-Oct-22 08:33N 47°35' W 122°21'0 0.0
2014-Oct-22 08:32N 47°35' W 122°21'0 0.0
2014-Oct-22 07:33N 47°35' W 122°21'0 0.3
2014-Oct-22 07:32N 47°35' W 122°21'0 0.0
2014-Oct-22 06:33N 47°35' W 122°21'0 0.0
2014-Oct-22 06:32N 47°35' W 122°21'0 0.0
2014-Oct-22 05:57N 47°35' W 122°21'0 0.0
2014-Oct-22 05:33N 47°35' W 122°21'7 6.8
2014-Oct-22 04:32N 47°41' W 122°26'0 8.3
2014-Oct-22 04:31N 47°42' W 122°26'8 7.8
2014-Oct-22 03:33N 47°49' W 122°24'0 8.3
2014-Oct-22 03:31N 47°49' W 122°24'9 9.0
2014-Oct-22 02:33N 47°57' W 122°19'4 4.0
2014-Oct-22 01:34N 47°59' W 122°13'9 8.6
2014-Oct-22 00:33N 47°52' W 122°22'7 9.9
2014-Oct-21 23:53N 47°46' W 122°25'  

Dump ship's entire track history